Time;durP1;ratioP1;P1;durP2;ratioP2;P2;SDS_P1;SDS_P2;PMS_P1;PMS_P2;Temp;Humidity;BMP_temperature;BMP_pressure;BME280_temperature;BME280_humidity;BME280_pressure;Samples;Min_cycle;Max_cycle;Signal;HPM_P1;HPM_P2
2020/12/04 00:01:35;;;;;;;;;;;;;;;17.40;63.52;101203.56;5033407;28;897;-50
2020/12/04 00:04:00;;;;;;;;;;;;;;;17.44;62.79;101189.84;5033327;28;845;-51
2020/12/04 00:06:26;;;;;;;;;;;;;;;17.50;62.77;101205.41;5033523;28;794;-51
2020/12/04 00:08:51;;;;;;;;;;;;;;;17.53;62.31;101208.81;5033271;28;1945;-51
2020/12/04 00:11:16;;;;;;;;;;;;;;;17.54;61.62;101199.84;5035916;28;849;-51
2020/12/04 00:13:41;;;;;;;;;;;;;;;17.40;62.53;101187.50;5037372;28;915;-52
2020/12/04 00:16:07;;;;;;;;;;;;;;;17.44;62.66;101189.84;5038357;28;821;-52
2020/12/04 00:18:32;;;;;;;;;;;;;;;17.48;62.01;101191.31;5037108;28;892;-51
2020/12/04 00:20:57;;;;;;;;;;;;;;;17.46;62.32;101185.22;5037013;28;1126;-50
2020/12/04 00:23:22;;;;;;;;;;;;;;;17.40;61.56;101183.00;5037063;28;805;-50
2020/12/04 00:25:48;;;;;;;;;;;;;;;17.37;61.48;101185.94;5037097;28;1035;-50
2020/12/04 00:28:13;;;;;;;;;;;;;;;17.39;62.40;101191.13;5036871;28;1945;-51
2020/12/04 00:30:38;;;;;;;;;;;;;;;17.41;61.43;101189.25;5036934;28;896;-51
2020/12/04 00:33:03;;;;;;;;;;;;;;;17.44;60.97;101181.81;5036864;28;988;-51
2020/12/04 00:35:29;;;;;;;;;;;;;;;17.32;62.12;101182.72;5037100;28;884;-51
2020/12/04 00:37:54;;;;;;;;;;;;;;;17.37;61.30;101190.41;5036911;28;955;-51
2020/12/04 00:40:19;;;;;;;;;;;;;;;17.40;62.16;101190.19;5037033;28;846;-51
2020/12/04 00:42:46;;;;;;;;;;;;;;;17.38;61.52;101168.91;5036789;28;785;-52
2020/12/04 00:45:12;;;;;;;;;;;;;;;17.30;62.05;101173.97;5036925;28;897;-52
2020/12/04 00:47:37;;;;;;;;;;;;;;;17.34;61.85;101190.66;5036594;28;890;-52
2020/12/04 00:50:02;;;;;;;;;;;;;;;17.40;60.87;101187.50;5036367;28;1910;-51
2020/12/04 00:52:28;;;;;;;;;;;;;;;17.23;62.26;101180.72;5036514;28;889;-51
2020/12/04 00:54:54;;;;;;;;;;;;;;;17.33;62.09;101187.13;5036682;28;840;-51
2020/12/04 00:57:19;;;;;;;;;;;;;;;17.25;62.26;101184.19;5036820;28;888;-51
2020/12/04 00:59:44;;;;;;;;;;;;;;;17.34;61.76;101177.28;5036730;28;865;-51
2020/12/04 01:02:09;;;;;;;;;;;;;;;17.33;61.04;101170.22;5050018;28;1725;-51
2020/12/04 01:04:35;;;;;;;;;;;;;;;17.28;61.32;101179.44;5056533;28;841;-51
2020/12/04 01:07:04;;;;;;;;;;;;;;;17.35;61.57;101169.16;5056383;28;876;-51
2020/12/04 01:09:29;;;;;;;;;;;;;;;17.23;60.53;101165.56;5056285;28;1901;-51
2020/12/04 01:11:54;;;;;;;;;;;;;;;17.25;61.67;101170.81;5056417;28;781;-51
2020/12/04 01:14:19;;;;;;;;;;;;;;;17.22;61.10;101169.19;5056091;28;817;-51
2020/12/04 01:16:46;;;;;;;;;;;;;;;17.23;60.93;101173.59;5056001;28;919;-51
2020/12/04 01:19:11;;;;;;;;;;;;;;;17.25;61.08;101170.81;5055966;28;935;-51
2020/12/04 01:21:36;;;;;;;;;;;;;;;17.21;61.31;101180.00;5055716;28;795;-51
2020/12/04 01:24:01;;;;;;;;;;;;;;;17.21;60.85;101182.66;5056179;28;917;-51
2020/12/04 01:26:26;;;;;;;;;;;;;;;17.21;61.25;101180.88;5055827;28;860;-51
2020/12/04 01:28:52;;;;;;;;;;;;;;;17.20;60.67;101175.63;5055666;28;1941;-51
2020/12/04 01:31:17;;;;;;;;;;;;;;;17.25;61.56;101166.31;5055714;28;889;-51
2020/12/04 01:33:42;;;;;;;;;;;;;;;17.22;60.79;101168.34;5055958;28;528;-52
2020/12/04 01:36:07;;;;;;;;;;;;;;;17.22;60.70;101166.53;5055941;28;911;-51
2020/12/04 01:38:33;;;;;;;;;;;;;;;17.20;60.73;101162.28;5055582;28;1018;-50
2020/12/04 01:41:00;;;;;;;;;;;;;;;17.28;59.97;101165.22;5055135;28;935;-51
2020/12/04 01:43:37;;;;;;;;;;;;;;;17.23;60.84;101170.03;5055656;28;907;-52
2020/12/04 01:46:02;;;;;;;;;;;;;;;17.27;60.08;101171.56;5055475;28;1548;-51
2020/12/04 01:48:27;;;;;;;;;;;;;;;17.24;60.00;101156.56;5055407;28;1906;-52
2020/12/04 01:50:53;;;;;;;;;;;;;;;17.24;61.01;101161.06;5055457;28;1632;-51
2020/12/04 01:53:19;;;;;;;;;;;;;;;17.21;60.16;101145.25;5055278;28;859;-52
2020/12/04 01:55:44;;;;;;;;;;;;;;;17.07;61.50;101139.13;5055564;28;846;-51
2020/12/04 01:58:10;;;;;;;;;;;;;;;17.19;60.29;101137.38;5055376;28;857;-51
2020/12/04 02:00:36;;;;;;;;;;;;;;;17.06;61.31;101142.75;5055076;28;849;-52
2020/12/04 02:03:01;;;;;;;;;;;;;;;17.07;60.39;101149.81;5054873;28;1431;-51
2020/12/04 02:05:26;;;;;;;;;;;;;;;17.19;60.79;101141.84;5055274;28;774;-51
2020/12/04 02:08:11;;;;;;;;;;;;;;;17.19;60.87;101144.50;5055153;28;892;-51
2020/12/04 02:10:42;;;;;;;;;;;;;;;17.12;61.23;101140.63;5055067;28;830;-52
2020/12/04 02:13:09;;;;;;;;;;;;;;;17.07;61.00;101144.47;5054860;28;846;-51
2020/12/04 02:15:34;;;;;;;;;;;;;;;17.08;59.87;101129.28;5055131;28;849;-52
2020/12/04 02:18:02;;;;;;;;;;;;;;;17.04;60.22;101144.69;5054899;28;894;-51
2020/12/04 02:20:30;;;;;;;;;;;;;;;16.98;61.30;101129.13;5054989;28;893;-52
2020/12/04 02:22:55;;;;;;;;;;;;;;;17.03;60.57;101129.66;5055041;28;838;-51
2020/12/04 02:25:20;;;;;;;;;;;;;;;17.10;60.96;101122.00;5055014;28;858;-51
2020/12/04 02:27:48;;;;;;;;;;;;;;;17.08;59.97;101139.97;5054998;28;861;-51
2020/12/04 02:30:31;;;;;;;;;;;;;;;17.06;60.86;101149.94;5054836;28;1894;-51
2020/12/04 02:32:57;;;;;;;;;;;;;;;17.06;60.34;101148.09;5054051;28;840;-51
2020/12/04 02:35:22;;;;;;;;;;;;;;;17.10;60.46;101149.59;5054823;28;825;-51
2020/12/04 02:37:48;;;;;;;;;;;;;;;17.05;59.78;101145.53;5054625;28;912;-51
2020/12/04 02:40:13;;;;;;;;;;;;;;;17.01;61.21;101144.06;5054719;28;790;-51
2020/12/04 02:42:41;;;;;;;;;;;;;;;17.00;60.39;101137.88;5054422;28;943;-51
2020/12/04 02:45:07;;;;;;;;;;;;;;;16.95;60.52;101134.72;5054608;28;841;-51
2020/12/04 02:47:32;;;;;;;;;;;;;;;17.02;59.71;101135.09;5054406;28;781;-52
2020/12/04 02:49:57;;;;;;;;;;;;;;;17.00;60.51;101116.50;5053904;28;1906;-51
2020/12/04 02:52:23;;;;;;;;;;;;;;;17.08;60.07;101118.59;5054367;28;849;-51
2020/12/04 02:54:48;;;;;;;;;;;;;;;17.06;60.50;101116.03;5054453;28;841;-51
2020/12/04 02:57:13;;;;;;;;;;;;;;;17.07;60.03;101112.41;5054133;28;904;-51
2020/12/04 02:59:39;;;;;;;;;;;;;;;17.03;59.26;101105.59;5054356;28;868;-51
2020/12/04 03:02:04;;;;;;;;;;;;;;;17.14;58.95;101106.63;5054261;28;1423;-51
2020/12/04 03:04:29;;;;;;;;;;;;;;;17.04;59.54;101099.28;5052832;28;829;-51
2020/12/04 03:06:54;;;;;;;;;;;;;;;17.02;59.25;101103.88;5053962;28;841;-51
2020/12/04 03:09:19;;;;;;;;;;;;;;;17.05;59.03;101114.34;5054152;28;1953;-51
2020/12/04 03:11:45;;;;;;;;;;;;;;;16.95;60.54;101113.34;5054178;28;790;-51
2020/12/04 03:14:10;;;;;;;;;;;;;;;16.77;61.86;101111.97;5053983;28;904;-51
2020/12/04 03:16:35;;;;;;;;;;;;;;;16.67;63.27;101109.09;5053904;28;852;-51
2020/12/04 03:19:00;;;;;;;;;;;;;;;16.60;62.99;101098.03;5054023;28;821;-51
2020/12/04 03:21:26;;;;;;;;;;;;;;;16.57;63.70;101092.91;5054009;28;798;-51
2020/12/04 03:23:51;;;;;;;;;;;;;;;16.53;64.09;101085.25;5054018;28;864;-51
2020/12/04 03:26:16;;;;;;;;;;;;;;;16.47;64.08;101089.19;5053655;28;853;-52
2020/12/04 03:28:41;;;;;;;;;;;;;;;16.47;64.19;101078.53;5053900;28;1945;-51
2020/12/04 03:31:07;;;;;;;;;;;;;;;16.48;64.40;101088.25;5053783;28;893;-51
2020/12/04 03:33:32;;;;;;;;;;;;;;;16.42;64.91;101081.53;5053687;28;853;-51
2020/12/04 03:35:57;;;;;;;;;;;;;;;16.44;64.50;101094.78;5053487;28;935;-51
2020/12/04 03:38:22;;;;;;;;;;;;;;;16.41;65.24;101095.88;5053643;28;1031;-51
2020/12/04 03:40:48;;;;;;;;;;;;;;;16.40;65.71;101090.63;5053780;28;789;-51
2020/12/04 03:43:13;;;;;;;;;;;;;;;16.35;65.52;101092.75;5053587;28;884;-51
2020/12/04 03:45:38;;;;;;;;;;;;;;;16.34;65.93;101075.06;5053517;28;905;-52
2020/12/04 03:48:03;;;;;;;;;;;;;;;16.38;65.88;101092.56;5053386;28;940;-51
2020/12/04 03:50:29;;;;;;;;;;;;;;;16.34;65.24;101101.75;5053503;28;1963;-52
2020/12/04 03:52:54;;;;;;;;;;;;;;;16.35;65.68;101108.78;5053307;28;896;-51
2020/12/04 03:55:19;;;;;;;;;;;;;;;16.33;66.14;101089.34;5053574;28;843;-51
2020/12/04 03:57:44;;;;;;;;;;;;;;;16.26;65.76;101104.97;5053638;28;896;-51
2020/12/04 04:02:38;;;;;;;;;;;;;;;16.27;66.39;101079.97;5066902;28;1596;-70
2020/12/04 04:05:03;;;;;;;;;;;;;;;16.23;66.18;101090.00;5070580;28;1052;-70
2020/12/04 04:07:29;;;;;;;;;;;;;;;16.28;66.02;101090.53;5072693;28;965;-59
2020/12/04 04:09:54;;;;;;;;;;;;;;;16.25;66.17;101080.09;5073526;28;1902;-59
2020/12/04 04:12:20;;;;;;;;;;;;;;;16.20;66.88;101082.22;5042669;28;11765;-63
2020/12/04 04:14:45;;;;;;;;;;;;;;;16.20;66.84;101078.72;5079928;28;1269;-59
2020/12/04 04:17:10;;;;;;;;;;;;;;;16.18;66.15;101076.16;5068640;28;1325;-67
2020/12/04 04:19:36;;;;;;;;;;;;;;;16.16;66.46;101075.41;5064304;28;1286;-59
2020/12/04 04:22:01;;;;;;;;;;;;;;;16.15;66.89;101079.03;5072875;28;1380;-59
2020/12/04 04:24:26;;;;;;;;;;;;;;;16.14;66.67;101080.00;5068865;28;1395;-67
2020/12/04 04:26:52;;;;;;;;;;;;;;;16.15;66.83;101073.69;5089944;28;1322;-59
2020/12/04 04:29:17;;;;;;;;;;;;;;;16.16;66.99;101077.22;5094571;28;1902;-68
2020/12/04 04:31:43;;;;;;;;;;;;;;;16.11;67.36;101085.53;5094659;28;777;-59
2020/12/04 04:34:08;;;;;;;;;;;;;;;16.13;66.90;101078.28;5077759;28;1087;-59
2020/12/04 04:36:33;;;;;;;;;;;;;;;16.11;67.37;101082.88;5062254;28;1459;-68
2020/12/04 04:38:59;;;;;;;;;;;;;;;16.11;67.57;101090.88;5083975;28;1254;-67
2020/12/04 04:41:24;;;;;;;;;;;;;;;16.13;66.82;101094.28;5078287;28;1309;-67
2020/12/04 04:43:50;;;;;;;;;;;;;;;16.10;66.74;101090.03;5063881;28;1383;-68
2020/12/04 04:46:27;;;;;;;;;;;;;;;16.08;67.54;101091.97;5062036;28;1349;-68
2020/12/04 04:48:56;;;;;;;;;;;;;;;16.08;67.71;101086.63;5066464;28;1944;-67
2020/12/04 04:51:23;;;;;;;;;;;;;;;16.06;67.69;101083.22;5068974;28;1293;-68
2020/12/04 04:53:54;;;;;;;;;;;;;;;16.05;67.57;101073.47;5064439;28;1324;-59
2020/12/04 04:56:20;;;;;;;;;;;;;;;16.07;67.88;101079.56;5065721;28;1463;-59
2020/12/04 04:58:45;;;;;;;;;;;;;;;16.07;67.49;101082.22;5067612;28;1384;-59
2020/12/04 05:01:10;;;;;;;;;;;;;;;16.04;67.17;101085.13;5065991;28;1451;-68
2020/12/04 05:03:36;;;;;;;;;;;;;;;16.11;67.66;101096.22;5084598;28;1351;-68
2020/12/04 05:06:01;;;;;;;;;;;;;;;16.03;67.49;101088.75;5059166;28;1306;-67
2020/12/04 05:08:26;;;;;;;;;;;;;;;16.12;67.19;101084.59;5077337;28;1909;-58
2020/12/04 05:11:05;;;;;;;;;;;;;;;16.26;67.67;101094.28;5085071;28;1321;-58
2020/12/04 05:13:31;;;;;;;;;;;;;;;16.19;67.02;101099.19;5062463;28;1328;-60
2020/12/04 05:15:56;;;;;;;;;;;;;;;16.13;67.78;101093.44;5087076;28;1333;-68
2020/12/04 05:18:22;;;;;;;;;;;;;;;16.05;67.86;101088.66;5087828;28;1382;-59
2020/12/04 05:20:56;;;;;;;;;;;;;;;16.00;67.93;101093.47;5088216;28;1341;-68
2020/12/04 05:23:23;;;;;;;;;;;;;;;15.97;67.89;101091.00;5088079;28;1320;-68
2020/12/04 05:25:52;;;;;;;;;;;;;;;15.97;68.42;101091.00;5083354;28;1318;-67
2020/12/04 05:28:21;;;;;;;;;;;;;;;15.94;68.26;101085.91;5068519;28;1890;-58
2020/12/04 05:30:47;;;;;;;;;;;;;;;15.94;68.01;101069.91;5087489;28;1314;-59
2020/12/04 05:33:13;;;;;;;;;;;;;;;15.93;68.45;101073.50;5086448;28;1368;-68
2020/12/04 05:35:39;;;;;;;;;;;;;;;15.90;68.26;101078.09;5086326;28;1321;-68
2020/12/04 05:38:05;;;;;;;;;;;;;;;15.94;68.41;101080.56;5087585;28;1365;-58
2020/12/04 05:40:30;;;;;;;;;;;;;;;15.96;68.57;101075.97;5085569;28;1265;-59
2020/12/04 05:42:55;;;;;;;;;;;;;;;15.96;68.48;101092.81;5086576;28;1270;-61
2020/12/04 05:45:21;;;;;;;;;;;;;;;16.01;67.92;101073.81;5087289;28;1199;-68
2020/12/04 05:47:46;;;;;;;;;;;;;;;15.99;68.16;101065.06;5085374;28;1313;-58
2020/12/04 05:50:13;;;;;;;;;;;;;;;15.95;68.30;101075.09;5068995;28;1881;-67
2020/12/04 05:52:39;;;;;;;;;;;;;;;15.95;68.60;101068.91;5087063;28;1198;-68
2020/12/04 05:55:05;;;;;;;;;;;;;;;15.91;68.37;101085.13;5085165;28;1372;-68
2020/12/04 05:57:51;;;;;;;;;;;;;;;15.96;68.40;101062.63;5087052;28;1222;-68
2020/12/04 06:00:17;;;;;;;;;;;;;;;15.99;68.52;101075.75;5083677;28;1262;-59
2020/12/04 06:02:42;;;;;;;;;;;;;;;15.95;68.45;101080.44;5085209;28;1396;-58
2020/12/04 06:05:09;;;;;;;;;;;;;;;15.94;67.85;101078.75;5087034;28;1242;-68
2020/12/04 06:07:35;;;;;;;;;;;;;;;15.96;67.93;101076.81;5085831;28;1167;-58
2020/12/04 06:10:01;;;;;;;;;;;;;;;15.96;68.29;101068.81;5085573;28;1960;-68
2020/12/04 06:12:26;;;;;;;;;;;;;;;16.01;68.60;101087.16;5087326;28;1316;-67
2020/12/04 06:14:52;;;;;;;;;;;;;;;15.95;68.71;101082.25;5081187;28;1274;-68
2020/12/04 06:17:17;;;;;;;;;;;;;;;15.91;68.77;101076.28;5086781;28;1241;-68
2020/12/04 06:19:43;;;;;;;;;;;;;;;15.95;68.48;101084.94;5085541;28;1179;-68
2020/12/04 06:22:08;;;;;;;;;;;;;;;15.94;68.26;101091.22;5027378;28;11678;-67
2020/12/04 06:24:52;;;;;;;;;;;;;;;15.91;68.22;101073.63;5075446;28;1330;-59
2020/12/04 06:27:44;;;;;;;;;;;;;;;15.87;68.23;101062.31;5075487;28;770;-68
2020/12/04 06:30:15;;;;;;;;;;;;;;;15.83;67.64;101071.47;5072934;28;1957;-59
2020/12/04 06:32:45;;;;;;;;;;;;;;;15.79;68.20;101078.00;5076131;28;747;-68
2020/12/04 06:35:11;;;;;;;;;;;;;;;15.68;68.27;101089.38;5075995;28;1214;-68
2020/12/04 06:37:38;;;;;;;;;;;;;;;15.70;67.53;101078.63;5075861;28;1407;-68
2020/12/04 06:40:22;;;;;;;;;;;;;;;15.70;68.22;101083.94;5075900;28;792;-66
2020/12/04 06:42:47;;;;;;;;;;;;;;;15.70;67.92;101084.78;5075818;28;832;-66
2020/12/04 06:45:13;;;;;;;;;;;;;;;15.67;67.99;101090.31;5057785;28;1354;-65
2020/12/04 06:47:38;;;;;;;;;;;;;;;15.67;67.28;101092.13;5058048;28;1096;-67
2020/12/04 06:50:04;;;;;;;;;;;;;;;15.65;67.26;101088.72;5075567;28;1945;-57
2020/12/04 06:52:29;;;;;;;;;;;;;;;15.64;67.18;101092.38;5075640;28;1072;-66
2020/12/04 06:54:55;;;;;;;;;;;;;;;15.56;67.31;101094.69;5075315;28;864;-57
2020/12/04 06:57:21;;;;;;;;;;;;;;;15.56;66.92;101098.22;5075510;28;844;-57
2020/12/04 06:59:47;;;;;;;;;;;;;;;15.57;66.31;101097.25;5075524;28;805;-66
2020/12/04 07:02:14;;;;;;;;;;;;;;;15.57;66.36;101099.06;5075068;28;1234;-67
2020/12/04 07:04:40;;;;;;;;;;;;;;;15.58;66.29;101106.97;5075800;28;836;-57
2020/12/04 07:07:13;;;;;;;;;;;;;;;15.58;65.96;101106.09;5075346;28;762;-57
2020/12/04 07:09:39;;;;;;;;;;;;;;;15.59;66.00;101110.47;5075255;28;1906;-57
2020/12/04 07:12:05;;;;;;;;;;;;;;;15.55;65.80;101101.84;5057489;28;1163;-57
2020/12/04 07:14:31;;;;;;;;;;;;;;;15.54;66.03;101108.13;5057498;28;1151;-57
2020/12/04 07:16:56;;;;;;;;;;;;;;;15.51;65.69;101103.00;5075002;28;780;-66
2020/12/04 07:19:23;;;;;;;;;;;;;;;15.51;65.88;101097.66;5074567;28;785;-58
2020/12/04 07:21:48;;;;;;;;;;;;;;;15.48;65.10;101109.41;5075012;28;797;-57
2020/12/04 07:24:14;;;;;;;;;;;;;;;15.57;64.55;101117.72;5074962;28;1195;-56
2020/12/04 07:26:43;;;;;;;;;;;;;;;15.49;65.06;101111.09;5074386;28;1318;-56
2020/12/04 07:29:09;;;;;;;;;;;;;;;15.45;64.94;101095.44;5071379;28;1965;-68
2020/12/04 07:31:35;;;;;;;;;;;;;;;15.45;65.20;101106.09;5074581;28;1255;-68
2020/12/04 07:34:02;;;;;;;;;;;;;;;15.37;64.29;101109.25;5074407;28;1211;-68
2020/12/04 07:36:28;;;;;;;;;;;;;;;15.46;64.36;101106.00;5074447;28;1404;-56
2020/12/04 07:38:55;;;;;;;;;;;;;;;15.56;63.69;101116.88;5074571;28;1392;-58
2020/12/04 07:41:22;;;;;;;;;;;;;;;15.68;63.50;101107.19;5074810;28;801;-56
2020/12/04 07:43:47;;;;;;;;;;;;;;;15.66;62.95;101106.44;5074043;28;1155;-69
2020/12/04 07:46:17;;;;;;;;;;;;;;;15.60;63.63;101117.53;5074636;28;805;-56
2020/12/04 07:48:57;;;;;;;;;;;;;;;15.52;63.53;101116.22;5057212;28;1885;-56
2020/12/04 07:51:23;;;;;;;;;;;;;;;15.52;62.82;101126.03;5074425;28;1204;-56
2020/12/04 07:53:48;;;;;;;;;;;;;;;15.54;63.47;101112.59;5074549;28;829;-69
2020/12/04 07:56:15;;;;;;;;;;;;;;;15.52;63.31;101110.06;5074791;28;813;-69
2020/12/04 07:58:40;;;;;;;;;;;;;;;15.58;62.55;101106.09;5073772;28;1436;-69
2020/12/04 08:01:06;;;;;;;;;;;;;;;15.57;62.90;101115.91;5069414;28;1523;-59
2020/12/04 08:03:31;;;;;;;;;;;;;;;15.60;63.06;101112.19;5069225;28;1691;-65
2020/12/04 08:06:06;;;;;;;;;;;;;;;15.61;63.02;101108.56;5038456;28;11784;-68
2020/12/04 08:08:31;;;;;;;;;;;;;;;15.62;62.75;101115.63;5041091;28;1985;-58
2020/12/04 08:11:07;;;;;;;;;;;;;;;15.60;63.51;101113.06;5051207;28;1438;-68
2020/12/04 08:13:33;;;;;;;;;;;;;;;15.61;63.15;101104.06;5049309;28;1115;-70
2020/12/04 08:15:58;;;;;;;;;;;;;;;15.62;62.67;101120.94;5045663;28;1674;-70
2020/12/04 08:18:23;;;;;;;;;;;;;;;15.61;62.72;101113.88;5049114;28;1526;-58
2020/12/04 08:20:49;;;;;;;;;;;;;;;15.61;63.25;101117.41;5048991;28;1495;-69
2020/12/04 08:23:20;;;;;;;;;;;;;;;15.63;62.97;101103.97;5053925;28;1421;-58
2020/12/04 08:25:45;;;;;;;;;;;;;;;15.62;63.25;101100.47;5055106;28;1412;-69
2020/12/04 08:28:11;;;;;;;;;;;;;;;15.62;62.58;101110.28;5055393;28;1151;-59
2020/12/04 08:30:39;;;;;;;;;;;;;;;15.60;63.12;101102.38;5053867;28;1937;-57
2020/12/04 08:33:06;;;;;;;;;;;;;;;15.76;62.41;101096.88;5058839;28;1486;-68
2020/12/04 08:35:32;;;;;;;;;;;;;;;15.69;63.10;101084.88;5051159;28;1554;-66
2020/12/04 08:38:04;;;;;;;;;;;;;;;15.65;61.87;101094.06;5056640;28;1511;-60
2020/12/04 08:40:32;;;;;;;;;;;;;;;15.74;61.64;101088.13;5048393;28;978;-68
2020/12/04 08:43:09;;;;;;;;;;;;;;;15.70;61.47;101086.63;5050510;28;1728;-69
2020/12/04 08:45:35;;;;;;;;;;;;;;;15.73;62.03;101075.75;5005042;28;10954;-60
2020/12/04 08:48:08;;;;;;;;;;;;;;;15.88;60.72;101077.34;5072672;28;1546;-63
2020/12/04 08:50:38;;;;;;;;;;;;;;;15.80;61.37;101069.03;5058338;28;1894;-60
2020/12/04 08:53:07;;;;;;;;;;;;;;;15.82;61.18;101075.13;5072244;28;1671;-59
2020/12/04 08:55:33;;;;;;;;;;;;;;;15.89;59.59;101086.19;5073237;28;1471;-59
2020/12/04 08:57:58;;;;;;;;;;;;;;;15.86;61.26;101083.78;5073945;28;985;-70
2020/12/04 09:00:28;;;;;;;;;;;;;;;15.77;60.26;101082.56;5060673;28;1458;-70
2020/12/04 09:02:54;;;;;;;;;;;;;;;15.75;60.57;101076.50;5077378;28;1510;-59
2020/12/04 09:05:19;;;;;;;;;;;;;;;15.70;61.42;101070.63;5075016;28;1506;-70
2020/12/04 09:07:45;;;;;;;;;;;;;;;15.75;59.92;101051.66;5060953;28;1625;-58
2020/12/04 09:10:11;;;;;;;;;;;;;;;15.73;59.86;101054.41;5067962;28;1972;-61
2020/12/04 09:12:37;;;;;;;;;;;;;;;15.76;60.33;101064.03;5070254;28;981;-70
2020/12/04 09:15:04;;;;;;;;;;;;;;;15.77;60.51;101055.91;5049214;28;1614;-59
2020/12/04 09:17:30;;;;;;;;;;;;;;;15.62;55.54;101040.97;5073089;28;1538;-69
2020/12/04 09:19:56;;;;;;;;;;;;;;;15.76;59.89;101051.56;5066078;28;1499;-69
2020/12/04 09:22:21;;;;;;;;;;;;;;;15.80;59.57;101049.53;5069461;28;1509;-59
2020/12/04 09:24:46;;;;;;;;;;;;;;;15.87;59.03;101056.97;5051536;28;1548;-60
2020/12/04 09:27:12;;;;;;;;;;;;;;;15.91;58.81;101041.59;5071058;28;1009;-59
2020/12/04 09:29:37;;;;;;;;;;;;;;;15.89;58.77;101038.19;5046430;28;1882;-58
2020/12/04 09:32:07;;;;;;;;;;;;;;;15.89;58.06;101033.72;5072646;28;1542;-69
2020/12/04 09:34:32;;;;;;;;;;;;;;;15.86;58.40;101039.28;5051768;28;1466;-69
2020/12/04 09:37:21;;;;;;;;;;;;;;;15.93;57.69;101039.69;5077026;28;1246;-58
2020/12/04 09:39:47;;;;;;;;;;;;;;;16.04;58.09;101031.78;5064238;28;1565;-59
2020/12/04 09:42:14;;;;;;;;;;;;;;;16.03;58.46;101029.22;5075215;28;1187;-59
2020/12/04 09:44:40;;;;;;;;;;;;;;;15.99;58.06;101022.41;5076562;28;1467;-59
2020/12/04 09:47:05;;;;;;;;;;;;;;;15.94;58.02;101024.56;5057638;28;1357;-70
2020/12/04 09:49:31;;;;;;;;;;;;;;;16.01;57.96;101025.81;5073882;28;1894;-59
2020/12/04 09:51:58;;;;;;;;;;;;;;;16.04;58.25;101013.09;5075535;28;1490;-69
2020/12/04 09:54:28;;;;;;;;;;;;;;;15.99;57.94;101001.91;5075458;28;962;-58
2020/12/04 09:56:57;;;;;;;;;;;;;;;15.99;57.80;101001.06;5072531;28;1292;-59
2020/12/04 09:59:23;;;;;;;;;;;;;;;16.04;57.53;101012.25;5069203;28;1530;-58
2020/12/04 10:01:49;;;;;;;;;;;;;;;16.06;57.70;101005.00;5072689;28;1502;-59
2020/12/04 10:04:15;;;;;;;;;;;;;;;16.01;58.37;100999.13;5076891;28;1179;-69
2020/12/04 10:06:40;;;;;;;;;;;;;;;16.00;57.78;100997.44;5075529;28;1887;-59
2020/12/04 10:09:05;;;;;;;;;;;;;;;16.15;57.58;100992.81;5069970;28;1949;-58
2020/12/04 10:11:31;;;;;;;;;;;;;;;16.16;58.08;101008.72;5087068;28;1604;-68
2020/12/04 10:13:56;;;;;;;;;;;;;;;16.17;58.71;100999.72;5018634;28;1331;-68
2020/12/04 10:16:21;;;;;;;;;;;;;;;16.20;58.44;101004.00;5070888;28;938;-58
2020/12/04 10:18:47;;;;;;;;;;;;;;;16.26;57.82;100987.53;5069925;28;1436;-76
2020/12/04 10:21:12;;;;;;;;;;;;;;;16.37;58.12;100984.06;5065457;28;1400;-71
2020/12/04 10:23:37;;;;;;;;;;;;;;;16.32;57.59;100987.09;5034660;28;10944;-59
2020/12/04 10:26:03;;;;;;;;;;;;;;;16.32;57.91;100968.41;5069014;28;1563;-67
2020/12/04 10:28:32;;;;;;;;;;;;;;;16.29;58.24;100977.50;5071196;28;1906;-59
2020/12/04 10:30:57;;;;;;;;;;;;;;;16.29;58.71;100977.50;5066836;28;1407;-59
2020/12/04 10:33:23;;;;;;;;;;;;;;;16.24;58.28;100984.13;5070883;28;1596;-71
2020/12/04 10:35:48;;;;;;;;;;;;;;;16.25;59.03;100986.69;5047480;28;12272;-59
2020/12/04 10:38:14;;;;;;;;;;;;;;;16.19;58.72;100987.13;5065705;28;1601;-66
2020/12/04 10:40:39;;;;;;;;;;;;;;;16.31;57.89;100974.69;5071080;28;1459;-71
2020/12/04 10:43:04;;;;;;;;;;;;;;;16.36;58.66;100972.56;5070233;28;1203;-57
2020/12/04 10:45:30;;;;;;;;;;;;;;;16.46;58.58;100976.25;5065739;28;1421;-66
2020/12/04 10:47:55;;;;;;;;;;;;;;;16.42;58.13;100981.94;5064957;28;1451;-68
2020/12/04 10:50:20;;;;;;;;;;;;;;;16.48;57.33;100981.47;5064494;28;1966;-68
2020/12/04 10:52:46;;;;;;;;;;;;;;;16.55;58.99;100966.69;5058927;28;1541;-57
2020/12/04 10:55:11;;;;;;;;;;;;;;;16.66;59.13;100961.41;5063060;28;1466;-58
2020/12/04 10:57:36;;;;;;;;;;;;;;;16.77;57.94;100965.09;5069197;28;1218;-69
2020/12/04 11:00:03;;;;;;;;;;;;;;;16.90;58.12;100950.72;5065410;28;1664;-57
2020/12/04 11:02:31;;;;;;;;;;;;;;;16.99;58.61;100953.66;5047964;28;1567;-58
2020/12/04 11:07:40;;;;;;;;;;;;;;;17.21;58.09;100942.13;5057418;28;1419;-66
2020/12/04 11:10:06;;;;;;;;;;;;;;;17.23;57.98;100932.19;5059234;28;1975;-58
2020/12/04 11:12:31;;;;;;;;;;;;;;;17.31;59.18;100951.16;5063252;28;859;-68
2020/12/04 11:14:56;;;;;;;;;;;;;;;17.59;58.37;100940.97;5069476;28;1502;-57
2020/12/04 11:17:22;;;;;;;;;;;;;;;17.65;58.23;100935.97;5058168;28;1463;-58
2020/12/04 11:19:47;;;;;;;;;;;;;;;17.63;57.64;100926.38;5050278;28;12302;-58
2020/12/04 11:22:14;;;;;;;;;;;;;;;17.68;57.64;100924.19;5060815;28;1424;-57
2020/12/04 11:24:40;;;;;;;;;;;;;;;17.74;58.39;100917.50;5050563;28;1429;-68
2020/12/04 11:27:05;;;;;;;;;;;;;;;17.77;58.46;100915.44;5050788;28;11838;-68
2020/12/04 11:29:31;;;;;;;;;;;;;;;17.92;57.33;100915.19;5068504;28;11393;-57
2020/12/04 11:31:56;;;;;;;;;;;;;;;17.97;58.44;100929.06;5069544;28;1577;-69
2020/12/04 11:34:21;;;;;;;;;;;;;;;18.02;57.87;100919.66;5051419;28;1483;-57
2020/12/04 11:36:47;;;;;;;;;;;;;;;18.05;57.73;100915.88;5059068;28;782;-58
2020/12/04 11:39:12;;;;;;;;;;;;;;;18.07;58.51;100911.25;5072592;28;1621;-57
2020/12/04 11:41:38;;;;;;;;;;;;;;;18.12;58.30;100909.03;5069994;28;1429;-68
2020/12/04 11:44:03;;;;;;;;;;;;;;;18.19;58.34;100915.59;5070001;28;1479;-68
2020/12/04 11:46:28;;;;;;;;;;;;;;;18.23;58.62;100918.88;5049193;28;1179;-58
2020/12/04 11:48:54;;;;;;;;;;;;;;;18.29;57.93;100923.72;5064645;28;1867;-70
2020/12/04 11:51:19;;;;;;;;;;;;;;;18.36;57.46;100914.19;5054555;28;1589;-68
2020/12/04 11:53:45;;;;;;;;;;;;;;;18.31;57.99;100920.94;5072098;28;1486;-57
2020/12/04 11:56:10;;;;;;;;;;;;;;;18.38;57.83;100928.31;5072652;28;1523;-66
2020/12/04 11:58:35;;;;;;;;;;;;;;;18.45;57.14;100923.31;5066457;28;1254;-58
2020/12/04 12:01:01;;;;;;;;;;;;;;;18.26;58.60;100932.88;5058462;28;1731;-57
2020/12/04 12:03:26;;;;;;;;;;;;;;;18.17;58.60;100914.03;5070535;28;1521;-66
2020/12/04 12:05:51;;;;;;;;;;;;;;;18.10;59.06;100911.00;5075896;28;859;-58
2020/12/04 12:08:17;;;;;;;;;;;;;;;18.04;59.35;100924.88;5076947;28;1534;-67
2020/12/04 12:10:42;;;;;;;;;;;;;;;17.98;58.73;100920.03;5071196;28;1914;-58
2020/12/04 12:13:07;;;;;;;;;;;;;;;17.96;58.99;100921.97;5066885;28;1530;-67
2020/12/04 12:15:33;;;;;;;;;;;;;;;17.92;59.55;100917.84;5066152;28;1612;-67
2020/12/04 12:17:58;;;;;;;;;;;;;;;17.84;59.86;100919.31;5053515;28;1577;-66
2020/12/04 12:20:23;;;;;;;;;;;;;;;17.82;59.71;100915.03;5053908;28;1454;-56
2020/12/04 12:22:49;;;;;;;;;;;;;;;17.78;60.32;100914.44;5070682;28;1399;-56
2020/12/04 12:25:14;;;;;;;;;;;;;;;17.74;60.16;100928.19;5059960;28;1503;-57
2020/12/04 12:27:40;;;;;;;;;;;;;;;17.76;61.06;100905.69;5063954;28;1564;-57
2020/12/04 12:30:06;;;;;;;;;;;;;;;17.74;61.14;100929.03;5056965;28;1897;-69
2020/12/04 12:32:31;;;;;;;;;;;;;;;17.76;61.36;100924.41;5073720;28;1459;-58
2020/12/04 12:35:01;;;;;;;;;;;;;;;17.81;61.01;100913.34;5059806;28;1488;-69
2020/12/04 12:37:26;;;;;;;;;;;;;;;17.93;60.31;100927.59;5067063;28;1585;-69
2020/12/04 12:39:52;;;;;;;;;;;;;;;17.89;59.92;100922.47;5066800;28;1541;-57
2020/12/04 12:42:18;;;;;;;;;;;;;;;17.94;60.50;100927.44;5062569;28;1243;-69
2020/12/04 12:44:44;;;;;;;;;;;;;;;17.92;60.68;100925.88;5076467;28;1691;-58
2020/12/04 12:47:10;;;;;;;;;;;;;;;17.96;59.80;100928.19;5073001;28;1525;-69
2020/12/04 12:49:35;;;;;;;;;;;;;;;18.00;60.23;100928.78;5073644;28;1955;-57
2020/12/04 12:52:01;;;;;;;;;;;;;;;17.97;60.64;100924.53;5075545;28;1502;-65